Time;durP1;ratioP1;P1;durP2;ratioP2;P2;SDS_P1;SDS_P2;PMS_P1;PMS_P2;Temp;Humidity;BMP_temperature;BMP_pressure;BME280_temperature;BME280_humidity;BME280_pressure;Samples;Min_cycle;Max_cycle;Signal;HPM_P1;HPM_P2
2023/01/05 00:00:10;;;;;;;1.33;0.20;;;13.10;99.90;;;;;;5055867;28;20614;-61
2023/01/05 00:02:37;;;;;;;0.33;0.33;;;13.00;99.90;;;;;;5055339;28;20205;-60
2023/01/05 00:05:06;;;;;;;0.53;0.10;;;13.00;99.90;;;;;;5055357;28;20736;-60
2023/01/05 00:07:32;;;;;;;0.30;0.20;;;13.00;99.90;;;;;;5055558;28;20231;-62
2023/01/05 00:09:59;;;;;;;0.27;0.10;;;13.00;99.90;;;;;;5055334;28;20213;-61
2023/01/05 00:23:25;;;;;;;0.63;0.30;;;13.00;99.90;;;;;;5055292;28;20331;-61
2023/01/05 00:25:52;;;;;;;0.60;0.40;;;13.00;99.90;;;;;;5055184;28;20205;-61
2023/01/05 00:28:18;;;;;;;1.93;0.40;;;13.10;99.90;;;;;;5055034;28;20229;-61
2023/01/05 00:30:46;;;;;;;0.17;0.17;;;13.10;99.90;;;;;;5056016;28;20208;-62
2023/01/05 00:33:15;;;;;;;0.80;0.20;;;13.10;99.90;;;;;;5055034;28;20238;-62
2023/01/05 00:35:43;;;;;;;0.33;0.20;;;13.20;99.90;;;;;;5054441;28;20216;-60
2023/01/05 00:38:10;;;;;;;0.20;0.20;;;13.20;99.90;;;;;;5054513;28;20217;-60
2023/01/05 00:40:37;;;;;;;1.37;0.30;;;13.30;99.90;;;;;;5054631;28;20235;-61
2023/01/05 00:43:04;;;;;;;0.20;0.20;;;13.30;99.90;;;;;;5054747;28;20213;-61
2023/01/05 00:45:31;;;;;;;0.53;0.20;;;13.20;99.90;;;;;;5055053;28;20236;-61
2023/01/05 00:47:58;;;;;;;0.17;0.10;;;13.20;99.90;;;;;;5056012;28;20312;-61
2023/01/05 00:50:24;;;;;;;0.10;0.00;;;13.20;99.90;;;;;;5057681;28;20258;-61
2023/01/05 00:52:53;;;;;;;0.37;0.33;;;13.30;99.90;;;;;;5055461;28;20206;-63
2023/01/05 00:55:19;;;;;;;0.17;0.13;;;13.30;99.90;;;;;;5055129;28;20233;-62
2023/01/05 00:57:46;;;;;;;0.20;0.07;;;13.40;99.90;;;;;;5055927;28;20812;-62
2023/01/05 01:00:16;;;;;;;0.50;0.37;;;13.40;99.90;;;;;;5055364;28;20221;-61
2023/01/05 01:02:43;;;;;;;0.50;0.40;;;13.40;99.90;;;;;;5055565;28;20193;-61
2023/01/05 01:05:11;;;;;;;0.30;0.20;;;13.40;99.90;;;;;;5055233;28;20230;-61
2023/01/05 01:07:38;;;;;;;0.10;0.10;;;13.40;99.90;;;;;;5055409;28;20253;-61
2023/01/05 01:10:07;;;;;;;0.37;0.20;;;13.40;99.90;;;;;;5054641;28;20201;-62
2023/01/05 01:12:34;;;;;;;0.10;0.10;;;13.40;99.90;;;;;;5055437;28;20218;-62
2023/01/05 01:15:01;;;;;;;0.13;0.13;;;13.50;99.90;;;;;;5055453;28;20608;-61
2023/01/05 01:17:28;;;;;;;0.20;0.10;;;13.50;99.90;;;;;;5054893;28;20662;-62
2023/01/05 01:19:54;;;;;;;0.27;0.20;;;13.50;99.90;;;;;;5055627;28;20210;-61
2023/01/05 01:22:21;;;;;;;0.73;0.37;;;13.60;99.90;;;;;;5055045;28;20209;-60
2023/01/05 01:24:48;;;;;;;0.20;0.20;;;13.60;99.90;;;;;;5054609;28;20233;-61
2023/01/05 01:27:16;;;;;;;1.23;0.50;;;13.60;99.90;;;;;;5054761;28;20221;-61
2023/01/05 01:29:43;;;;;;;0.23;0.10;;;13.60;99.90;;;;;;5054835;28;20665;-61
2023/01/05 01:32:09;;;;;;;0.00;0.00;;;13.60;99.90;;;;;;5054588;28;20213;-61
2023/01/05 01:34:38;;;;;;;1.00;0.30;;;13.60;99.90;;;;;;5055319;28;20229;-61
2023/01/05 01:37:05;;;;;;;0.27;0.10;;;13.60;99.90;;;;;;5054876;28;20246;-61
2023/01/05 01:39:31;;;;;;;0.00;0.00;;;13.70;99.90;;;;;;5054842;28;20201;-60
2023/01/05 01:41:58;;;;;;;0.03;0.03;;;13.70;99.90;;;;;;5054623;28;20205;-61
2023/01/05 01:44:58;;;;;;;0.20;0.20;;;13.60;99.90;;;;;;5055586;28;20237;-58
2023/01/05 01:47:35;;;;;;;0.10;0.07;;;13.60;99.90;;;;;;5054453;28;20313;-57
2023/01/05 01:50:04;;;;;;;0.40;0.10;;;13.50;99.90;;;;;;5054059;28;20252;-61
2023/01/05 01:52:32;;;;;;;0.50;0.20;;;13.50;99.90;;;;;;5054472;28;20209;-58
2023/01/05 01:55:02;;;;;;;0.10;0.10;;;13.50;99.90;;;;;;5053880;28;20225;-58
2023/01/05 01:57:29;;;;;;;0.20;0.10;;;13.60;99.90;;;;;;5053856;28;20604;-59
2023/01/05 01:59:59;;;;;;;0.57;0.20;;;13.50;99.90;;;;;;5053669;28;20634;-58
2023/01/05 02:02:27;;;;;;;0.40;0.10;;;13.50;99.90;;;;;;5054074;28;20213;-58
2023/01/05 02:04:55;;;;;;;0.10;0.10;;;13.40;99.90;;;;;;5054192;28;20605;-57
2023/01/05 02:07:25;;;;;;;0.30;0.17;;;13.50;99.90;;;;;;5053943;28;20225;-58
2023/01/05 02:09:52;;;;;;;0.63;0.00;;;13.50;99.90;;;;;;5053788;28;20213;-57
2023/01/05 02:12:31;;;;;;;0.10;0.10;;;13.50;99.90;;;;;;5053722;28;20588;-57
2023/01/05 02:15:11;;;;;;;0.40;0.33;;;13.50;99.90;;;;;;5054147;28;20229;-56
2023/01/05 02:17:48;;;;;;;0.33;0.20;;;13.50;99.90;;;;;;5054135;28;20660;-57
2023/01/05 02:20:34;;;;;;;0.10;0.00;;;13.60;99.90;;;;;;5053516;28;20209;-58
2023/01/05 02:23:36;;;;;;;0.10;0.10;;;13.60;99.90;;;;;;5053621;28;20194;-60
2023/01/05 02:26:54;;;;;;;0.07;0.07;;;13.60;99.90;;;;;;5044122;28;20216;-59
2023/01/05 02:30:00;;;;;;;0.00;0.00;;;13.50;99.90;;;;;;5016086;28;20233;-58
2023/01/05 02:32:31;;;;;;;0.10;0.10;;;13.40;99.90;;;;;;5015431;28;20233;-57
2023/01/05 02:35:08;;;;;;;0.63;0.10;;;13.40;99.90;;;;;;5051557;28;20233;-57
2023/01/05 02:37:42;;;;;;;0.03;0.00;;;13.40;99.90;;;;;;5057692;28;20201;-57
2023/01/05 02:40:14;;;;;;;0.20;0.10;;;13.40;99.90;;;;;;5057677;28;20205;-59
2023/01/05 02:42:43;;;;;;;0.50;0.40;;;13.50;99.90;;;;;;5057740;28;20599;-57
2023/01/05 02:45:10;;;;;;;1.90;0.10;;;13.50;99.90;;;;;;5057439;28;20292;-57
2023/01/05 02:47:40;;;;;;;0.93;0.30;;;13.50;99.90;;;;;;5058150;28;20233;-57
2023/01/05 02:50:13;;;;;;;0.20;0.10;;;13.50;99.90;;;;;;5057970;28;20209;-56
2023/01/05 02:52:46;;;;;;;0.53;0.17;;;13.50;99.90;;;;;;5058321;28;20208;-56
2023/01/05 02:55:17;;;;;;;0.00;0.00;;;13.40;99.90;;;;;;5057970;28;20225;-57
2023/01/05 02:57:49;;;;;;;1.73;0.40;;;13.40;99.90;;;;;;5058018;28;20210;-57
2023/01/05 03:00:20;;;;;;;1.07;0.50;;;13.50;99.90;;;;;;5057708;28;20213;-58
2023/01/05 03:02:52;;;;;;;0.23;0.10;;;13.50;99.90;;;;;;5057770;28;20213;-60
2023/01/05 03:05:25;;;;;;;0.17;0.17;;;13.50;99.90;;;;;;5057998;28;20588;-57
2023/01/05 03:08:06;;;;;;;0.13;0.07;;;13.50;99.90;;;;;;5057549;28;20599;-59
2023/01/05 03:13:40;;;;;;;0.67;0.10;;;13.50;99.90;;;;;;5057419;28;20590;-59
2023/01/05 03:16:08;;;;;;;0.17;0.17;;;13.60;99.90;;;;;;5057439;28;20210;-58
2023/01/05 03:19:34;;;;;;;0.30;0.00;;;13.50;99.90;;;;;;5056921;28;20202;-62
2023/01/05 03:21:26;;;;;;;0.13;0.13;;;13.40;99.90;;;;;;5056907;28;20271;-59
2023/01/05 03:37:58;;;;;;;1.87;0.53;;;13.50;99.90;;;;;;5056730;28;20209;-60
2023/01/05 03:40:28;;;;;;;0.67;0.30;;;13.50;99.90;;;;;;5056717;28;20641;-59
2023/01/05 03:42:55;;;;;;;0.20;0.10;;;13.60;99.90;;;;;;5056660;28;20224;-59
2023/01/05 03:45:24;;;;;;;0.73;0.20;;;13.50;99.90;;;;;;5056194;28;20241;-59
2023/01/05 03:47:50;;;;;;;0.10;0.10;;;13.60;99.90;;;;;;5056620;28;20254;-60
2023/01/05 03:50:19;;;;;;;0.30;0.10;;;13.60;99.90;;;;;;5056209;28;20203;-59
2023/01/05 03:52:46;;;;;;;0.13;0.10;;;13.70;99.90;;;;;;5056732;28;20235;-59
2023/01/05 03:55:12;;;;;;;0.20;0.10;;;13.70;99.90;;;;;;5056638;28;20229;-58
2023/01/05 03:57:39;;;;;;;0.00;0.00;;;13.80;99.90;;;;;;5056256;28;20626;-60
2023/01/05 04:00:07;;;;;;;0.10;0.10;;;13.70;99.90;;;;;;5056292;28;20363;-59
2023/01/05 04:02:34;;;;;;;0.13;0.10;;;13.80;99.90;;;;;;5056111;28;20213;-59
2023/01/05 04:05:00;;;;;;;0.10;0.10;;;13.80;99.90;;;;;;5056532;28;20771;-58
2023/01/05 04:07:28;;;;;;;0.30;0.10;;;13.90;99.90;;;;;;5056523;28;20209;-59
2023/01/05 04:09:55;;;;;;;0.60;0.10;;;13.80;99.90;;;;;;5056330;28;20598;-59
2023/01/05 04:12:22;;;;;;;0.40;0.30;;;13.70;99.90;;;;;;5056369;28;20212;-59
2023/01/05 04:14:49;;;;;;;0.17;0.10;;;13.60;99.90;;;;;;5056413;28;20229;-57
2023/01/05 04:17:15;;;;;;;0.30;0.13;;;13.60;99.90;;;;;;5055817;28;20213;-59
2023/01/05 04:19:42;;;;;;;0.20;0.10;;;13.60;99.90;;;;;;5055875;28;20217;-57
2023/01/05 04:22:09;;;;;;;0.20;0.20;;;13.60;99.90;;;;;;5055621;28;20208;-60
2023/01/05 04:24:37;;;;;;;0.20;0.17;;;13.60;99.90;;;;;;5056297;28;20234;-57
2023/01/05 04:27:04;;;;;;;0.50;0.20;;;13.70;99.90;;;;;;5055997;28;20232;-57
2023/01/05 04:29:31;;;;;;;0.30;0.20;;;13.70;99.90;;;;;;5055690;28;20229;-57
2023/01/05 04:31:57;;;;;;;0.20;0.10;;;13.80;99.90;;;;;;5055533;28;20205;-59
2023/01/05 04:34:24;;;;;;;0.20;0.00;;;13.70;99.90;;;;;;5055924;28;20229;-57
2023/01/05 04:36:51;;;;;;;0.57;0.20;;;13.80;99.90;;;;;;5055705;28;20210;-57
2023/01/05 04:39:18;;;;;;;0.33;0.20;;;13.70;99.90;;;;;;5055991;28;20214;-58
2023/01/05 04:41:47;;;;;;;0.10;0.10;;;13.70;99.90;;;;;;5055939;28;20292;-57
2023/01/05 04:44:14;;;;;;;0.53;0.43;;;13.70;99.90;;;;;;5055754;28;20265;-60
2023/01/05 04:46:41;;;;;;;0.33;0.33;;;13.70;99.90;;;;;;5055728;28;20216;-57
2023/01/05 04:49:09;;;;;;;1.80;0.20;;;13.70;99.90;;;;;;5055522;28;20226;-57
2023/01/05 04:51:36;;;;;;;0.70;0.30;;;13.70;99.90;;;;;;5055741;28;20228;-59
2023/01/05 04:54:03;;;;;;;1.07;0.30;;;13.70;99.90;;;;;;5055479;28;20610;-57
2023/01/05 04:56:30;;;;;;;0.70;0.70;;;13.70;99.90;;;;;;5055287;28;20213;-58
2023/01/05 04:58:58;;;;;;;0.37;0.30;;;13.70;99.90;;;;;;5054885;28;20205;-58
2023/01/05 05:01:25;;;;;;;0.70;0.50;;;13.70;99.90;;;;;;5055615;28;20233;-58
2023/01/05 05:03:52;;;;;;;1.00;0.40;;;13.70;99.90;;;;;;5055394;28;20237;-57
2023/01/05 05:06:19;;;;;;;2.23;1.20;;;13.70;99.90;;;;;;5055152;28;20205;-60
2023/01/05 05:08:45;;;;;;;0.57;0.50;;;13.70;99.90;;;;;;5055027;28;20241;-57
2023/01/05 05:11:12;;;;;;;1.10;0.90;;;13.70;99.90;;;;;;5054678;28;20236;-57
2023/01/05 05:13:39;;;;;;;0.70;0.47;;;13.70;99.90;;;;;;5054798;28;20229;-58
2023/01/05 05:16:08;;;;;;;5.40;2.50;;;13.60;99.90;;;;;;5055187;28;20296;-57
2023/01/05 05:18:35;;;;;;;2.03;1.00;;;13.60;99.90;;;;;;5054890;28;20615;-60
2023/01/05 05:21:02;;;;;;;0.77;0.40;;;13.60;99.90;;;;;;5054326;28;20216;-57
2023/01/05 05:23:29;;;;;;;0.80;0.60;;;13.60;99.90;;;;;;5055140;28;20233;-58
2023/01/05 05:25:55;;;;;;;0.30;0.20;;;13.50;99.90;;;;;;5055614;28;20209;-58
2023/01/05 05:28:26;;;;;;;0.80;0.20;;;13.40;99.90;;;;;;5054707;28;20225;-58
2023/01/05 05:30:54;;;;;;;0.93;0.50;;;13.40;99.90;;;;;;5054969;28;20210;-58
2023/01/05 05:33:23;;;;;;;3.20;0.43;;;13.30;99.90;;;;;;5055112;28;20201;-59
2023/01/05 05:35:50;;;;;;;0.53;0.50;;;13.20;99.90;;;;;;5055221;28;20583;-58
2023/01/05 05:38:17;;;;;;;0.77;0.20;;;13.10;99.90;;;;;;5054899;28;20461;-57
2023/01/05 05:40:44;;;;;;;0.10;0.00;;;13.00;99.90;;;;;;5055187;28;20292;-58
2023/01/05 05:43:11;;;;;;;0.60;0.20;;;12.80;99.90;;;;;;5055001;28;20201;-57
2023/01/05 05:45:38;;;;;;;0.47;0.10;;;12.70;99.90;;;;;;5055027;28;20206;-58
2023/01/05 05:48:05;;;;;;;0.40;0.30;;;12.70;99.90;;;;;;5055249;28;20220;-57
2023/01/05 05:50:33;;;;;;;0.60;0.20;;;12.80;99.90;;;;;;5054377;28;20213;-58
2023/01/05 05:53:00;;;;;;;0.10;0.10;;;12.80;99.90;;;;;;5054914;28;20202;-58
2023/01/05 05:55:26;;;;;;;0.80;0.50;;;12.80;99.90;;;;;;5054347;28;20606;-58
2023/01/05 05:57:53;;;;;;;1.27;0.37;;;12.80;99.90;;;;;;5055030;28;20217;-57
2023/01/05 06:00:20;;;;;;;0.10;0.10;;;12.80;99.90;;;;;;5053832;28;20206;-60
2023/01/05 06:02:47;;;;;;;0.20;0.20;;;12.80;99.90;;;;;;5054962;28;20209;-57
2023/01/05 06:05:13;;;;;;;1.03;0.30;;;12.80;99.90;;;;;;5054947;28;20321;-57
2023/01/05 06:07:42;;;;;;;1.27;0.43;;;12.80;99.90;;;;;;5054311;28;20681;-58
2023/01/05 06:10:09;;;;;;;0.83;0.40;;;12.80;99.90;;;;;;5054343;28;20701;-58
2023/01/05 06:12:36;;;;;;;0.57;0.40;;;12.70;99.90;;;;;;5053776;28;20640;-57
2023/01/05 06:15:03;;;;;;;0.80;0.40;;;12.60;99.90;;;;;;5053590;28;20337;-57
2023/01/05 06:17:30;;;;;;;2.50;1.00;;;12.60;99.90;;;;;;5054710;28;20214;-57
2023/01/05 06:19:56;;;;;;;1.93;0.40;;;12.70;99.90;;;;;;5053699;28;20271;-57
2023/01/05 06:22:23;;;;;;;1.83;0.50;;;12.60;99.90;;;;;;5054129;28;20705;-58
2023/01/05 06:24:51;;;;;;;2.47;0.60;;;12.70;99.90;;;;;;5053990;28;20414;-57
2023/01/05 06:27:18;;;;;;;2.50;0.70;;;12.70;99.90;;;;;;5054311;28;20636;-58
2023/01/05 06:29:45;;;;;;;1.97;0.60;;;12.60;99.90;;;;;;5054017;28;20229;-57
2023/01/05 06:32:12;;;;;;;2.23;1.27;;;12.50;99.90;;;;;;5054681;28;20205;-57
2023/01/05 06:34:38;;;;;;;1.67;0.30;;;12.50;99.90;;;;;;5054518;28;20225;-60
2023/01/05 06:37:05;;;;;;;1.33;0.60;;;12.40;99.90;;;;;;5054317;28;20214;-58
2023/01/05 06:39:32;;;;;;;2.20;0.80;;;12.40;99.90;;;;;;5054178;28;20264;-57
2023/01/05 06:42:00;;;;;;;2.17;0.70;;;12.30;99.90;;;;;;5054422;28;20213;-58
2023/01/05 06:44:27;;;;;;;3.23;0.80;;;12.30;99.90;;;;;;5054484;28;20241;-58
2023/01/05 06:46:54;;;;;;;1.17;0.50;;;12.30;99.90;;;;;;5054701;28;20215;-57
2023/01/05 06:49:21;;;;;;;1.60;0.70;;;12.30;99.90;;;;;;5054373;28;20253;-59
2023/01/05 06:51:48;;;;;;;2.33;0.60;;;12.40;99.90;;;;;;5054534;28;20213;-57
2023/01/05 06:54:15;;;;;;;2.73;0.80;;;12.40;99.90;;;;;;5054940;28;20232;-56
2023/01/05 06:56:41;;;;;;;2.70;1.00;;;12.40;99.90;;;;;;5054727;28;20221;-57
2023/01/05 06:59:12;;;;;;;4.40;1.00;;;12.40;99.90;;;;;;5053975;28;20303;-57
2023/01/05 07:01:39;;;;;;;4.80;1.33;;;12.40;99.90;;;;;;5054233;28;20201;-59
2023/01/05 07:04:06;;;;;;;2.87;1.20;;;12.50;99.90;;;;;;5054517;28;20221;-57
2023/01/05 07:06:34;;;;;;;4.10;0.90;;;12.40;99.90;;;;;;5055374;28;20639;-57
2023/01/05 07:09:01;;;;;;;5.10;1.10;;;12.40;99.90;;;;;;5054882;28;20304;-56
2023/01/05 07:11:28;;;;;;;3.97;0.83;;;12.40;99.90;;;;;;5057734;28;20210;-57
2023/01/05 07:13:55;;;;;;;5.80;1.13;;;12.30;99.90;;;;;;5058665;28;20230;-57
2023/01/05 07:16:23;;;;;;;3.37;1.00;;;12.40;99.90;;;;;;5058972;28;20213;-57
2023/01/05 07:18:50;;;;;;;4.90;1.20;;;12.50;99.90;;;;;;5058334;28;20232;-60
2023/01/05 07:21:17;;;;;;;2.83;0.93;;;12.50;99.90;;;;;;5058366;28;20579;-57
2023/01/05 07:23:43;;;;;;;3.07;1.10;;;12.60;99.90;;;;;;5057646;28;20741;-57
2023/01/05 07:26:10;;;;;;;2.00;1.00;;;12.60;99.90;;;;;;5057762;28;20210;-59
2023/01/05 07:28:37;;;;;;;6.77;1.73;;;12.60;99.90;;;;;;5058119;28;20209;-57
2023/01/05 07:31:06;;;;;;;4.50;1.03;;;12.60;99.90;;;;;;5056679;28;20697;-57
2023/01/05 07:33:35;;;;;;;7.82;2.60;;;12.60;99.90;;;;;;5054953;28;20975;-57
2023/01/05 07:36:02;;;;;;;2.50;1.30;;;12.70;99.90;;;;;;5055907;28;20209;-56
2023/01/05 07:38:29;;;;;;;5.23;1.40;;;12.70;99.90;;;;;;5055046;28;20217;-55
2023/01/05 07:40:58;;;;;;;5.33;1.37;;;12.70;99.90;;;;;;5055505;28;20733;-58
2023/01/05 07:43:25;;;;;;;5.83;1.77;;;12.70;99.90;;;;;;5055495;28;20553;-55
2023/01/05 07:45:51;;;;;;;3.77;1.13;;;12.70;99.90;;;;;;5055398;28;20673;-57
2023/01/05 07:48:18;;;;;;;3.30;1.10;;;12.80;99.90;;;;;;5055651;28;20201;-58
2023/01/05 07:50:46;;;;;;;5.50;1.50;;;12.70;99.90;;;;;;5054301;28;20250;-57
2023/01/05 07:53:13;;;;;;;4.03;1.50;;;12.60;99.90;;;;;;5054847;28;20665;-57
2023/01/05 07:55:40;;;;;;;4.80;1.10;;;12.60;99.90;;;;;;5055193;28;20605;-57
2023/01/05 07:58:07;;;;;;;4.90;1.63;;;12.70;99.90;;;;;;5054809;28;20220;-57
2023/01/05 08:00:33;;;;;;;4.43;1.13;;;12.70;99.90;;;;;;5055153;28;20208;-57
2023/01/05 08:03:00;;;;;;;3.27;1.20;;;12.70;99.90;;;;;;5056013;28;20213;-56
2023/01/05 08:05:32;;;;;;;5.70;1.47;;;12.70;99.90;;;;;;5056038;28;20236;-58
2023/01/05 08:08:00;;;;;;;5.80;2.13;;;12.70;99.90;;;;;;5055975;28;20213;-57
2023/01/05 08:10:30;;;;;;;4.63;1.50;;;12.70;99.90;;;;;;5055913;28;20257;-57
2023/01/05 08:15:46;;;;;;;4.50;1.10;;;12.80;99.90;;;;;;5055634;28;20328;-57
2023/01/05 08:18:12;;;;;;;7.43;1.87;;;12.90;99.90;;;;;;5055842;28;20209;-56
2023/01/05 08:20:40;;;;;;;6.33;1.27;;;12.90;99.90;;;;;;5055853;28;20218;-57
2023/01/05 08:23:08;;;;;;;5.33;1.20;;;13.00;99.90;;;;;;5054600;28;20576;-56
2023/01/05 08:25:35;;;;;;;4.67;1.40;;;13.20;99.90;;;;;;5055861;28;20292;-56
2023/01/05 08:28:02;;;;;;;3.80;1.53;;;13.20;99.90;;;;;;5056361;28;20201;-56
2023/01/05 08:30:30;;;;;;;5.27;1.47;;;13.30;99.90;;;;;;5056120;28;20229;-57
2023/01/05 08:32:57;;;;;;;7.17;1.50;;;13.40;99.90;;;;;;5055882;28;20205;-56
2023/01/05 08:35:23;;;;;;;7.27;1.50;;;13.50;99.90;;;;;;5055366;28;20244;-57
2023/01/05 08:37:50;;;;;;;7.63;1.43;;;13.50;99.90;;;;;;5056160;28;20296;-57
2023/01/05 08:40:18;;;;;;;4.43;1.40;;;13.50;99.90;;;;;;5055518;28;20209;-57
2023/01/05 08:42:47;;;;;;;6.10;1.63;;;13.50;99.90;;;;;;5055703;28;20216;-58
2023/01/05 08:45:14;;;;;;;4.93;1.40;;;13.60;99.90;;;;;;5055588;28;20293;-57
2023/01/05 08:47:41;;;;;;;4.93;1.20;;;13.60;99.90;;;;;;5055201;28;20236;-58
2023/01/05 08:50:10;;;;;;;8.30;1.97;;;13.60;99.90;;;;;;5054910;28;20226;-59
2023/01/05 08:52:37;;;;;;;4.17;1.37;;;13.60;99.90;;;;;;5054704;28;20198;-56
2023/01/05 08:55:04;;;;;;;5.67;1.43;;;13.60;99.90;;;;;;5055067;28;20239;-56
2023/01/05 08:57:33;;;;;;;6.33;2.87;;;13.70;99.90;;;;;;5054850;28;20623;-56
2023/01/05 09:00:00;;;;;;;5.60;1.77;;;13.70;99.90;;;;;;5054251;28;20208;-56
2023/01/05 09:02:27;;;;;;;6.50;1.53;;;13.60;99.90;;;;;;5055124;28;20206;-57
2023/01/05 09:04:53;;;;;;;8.00;2.23;;;13.60;99.90;;;;;;5053817;28;20229;-56
2023/01/05 09:07:21;;;;;;;6.20;1.80;;;13.50;99.90;;;;;;5054248;28;20213;-58
2023/01/05 09:09:48;;;;;;;7.57;1.60;;;13.50;99.90;;;;;;5053855;28;20279;-57
2023/01/05 09:12:14;;;;;;;6.30;1.77;;;13.50;99.90;;;;;;5054144;28;20221;-58
2023/01/05 09:14:43;;;;;;;6.43;1.77;;;13.50;99.90;;;;;;5053272;28;20320;-57
2023/01/05 09:17:09;;;;;;;13.93;7.57;;;13.50;99.90;;;;;;5053698;28;20281;-57
2023/01/05 09:19:36;;;;;;;5.20;1.60;;;13.60;99.90;;;;;;5052781;28;20205;-57
2023/01/05 09:22:03;;;;;;;8.07;1.90;;;13.70;99.90;;;;;;5053438;28;20202;-58
2023/01/05 09:24:30;;;;;;;4.83;1.60;;;13.70;99.90;;;;;;5053660;28;20226;-57
2023/01/05 09:26:57;;;;;;;9.80;1.83;;;13.80;99.90;;;;;;5052928;28;20224;-58
2023/01/05 09:29:24;;;;;;;4.50;1.50;;;13.80;99.90;;;;;;5052813;28;20661;-58
2023/01/05 09:31:52;;;;;;;6.13;1.70;;;13.90;99.90;;;;;;5052682;28;20213;-58
2023/01/05 09:34:18;;;;;;;6.43;1.83;;;13.90;99.90;;;;;;5052555;28;20701;-57
2023/01/05 09:36:45;;;;;;;4.07;1.47;;;14.00;99.90;;;;;;5058398;28;20209;-57
2023/01/05 09:39:12;;;;;;;6.90;1.57;;;14.00;99.90;;;;;;5071765;28;20228;-57
2023/01/05 09:41:43;;;;;;;5.40;1.80;;;14.00;99.90;;;;;;5072451;28;20227;-59
2023/01/05 09:44:16;;;;;;;5.53;1.60;;;14.10;99.90;;;;;;5071544;28;20730;-61
2023/01/05 09:46:46;;;;;;;7.57;1.93;;;14.10;99.90;;;;;;5072235;28;20209;-60
2023/01/05 09:49:16;;;;;;;8.33;2.00;;;14.10;99.90;;;;;;5072414;28;20665;-62
2023/01/05 09:51:43;;;;;;;7.43;1.83;;;14.10;99.90;;;;;;5072364;28;20235;-61
2023/01/05 09:54:15;;;;;;;7.07;1.60;;;14.20;99.90;;;;;;5072782;28;20225;-59
2023/01/05 09:56:44;;;;;;;6.33;1.77;;;14.30;99.90;;;;;;5072494;28;20213;-58
2023/01/05 09:59:17;;;;;;;7.83;1.90;;;14.20;99.90;;;;;;5072506;28;20677;-59
2023/01/05 10:01:45;;;;;;;9.53;1.90;;;14.20;99.90;;;;;;5072711;28;20466;-58
2023/01/05 10:04:16;;;;;;;10.07;2.47;;;14.30;99.90;;;;;;5072185;28;20235;-59
2023/01/05 10:06:46;;;;;;;7.20;1.87;;;14.30;99.90;;;;;;5071740;28;20243;-60
2023/01/05 10:09:17;;;;;;;6.37;2.00;;;14.20;99.90;;;;;;5072396;28;20209;-62
2023/01/05 10:14:38;;;;;;;6.70;1.90;;;14.10;99.90;;;;;;5072373;28;20271;-57
2023/01/05 10:17:12;;;;;;;10.20;3.27;;;14.20;99.90;;;;;;5072037;28;20238;-58
2023/01/05 10:19:40;;;;;;;10.40;2.13;;;14.30;99.90;;;;;;5071402;28;20281;-58
2023/01/05 10:22:22;;;;;;;7.90;2.73;;;14.20;99.90;;;;;;5071455;28;20207;-59
2023/01/05 10:24:55;;;;;;;8.17;2.53;;;14.10;99.90;;;;;;5071945;28;20224;-60
2023/01/05 10:27:27;;;;;;;9.27;2.27;;;14.00;99.90;;;;;;5071802;28;20752;-57
2023/01/05 10:30:01;;;;;;;8.17;3.57;;;13.90;99.90;;;;;;5071704;28;20240;-56
2023/01/05 10:32:39;;;;;;;11.53;2.40;;;13.90;99.90;;;;;;5071423;28;20204;-57
2023/01/05 10:35:21;;;;;;;8.80;2.73;;;14.00;99.90;;;;;;5072418;28;20228;-57
2023/01/05 10:38:00;;;;;;;11.00;2.53;;;14.10;99.90;;;;;;5072136;28;20204;-58
2023/01/05 10:40:43;;;;;;;6.20;2.13;;;14.20;99.90;;;;;;5071682;28;20205;-59
2023/01/05 10:43:24;;;;;;;13.37;3.60;;;14.30;99.90;;;;;;5071125;28;20219;-58
2023/01/05 10:45:51;;;;;;;10.77;2.30;;;14.30;99.90;;;;;;5073586;28;20283;-59
2023/01/05 10:48:24;;;;;;;7.07;2.20;;;14.40;99.90;;;;;;5075640;28;20212;-58
2023/01/05 10:50:54;;;;;;;8.77;2.40;;;14.40;99.90;;;;;;5075878;28;20232;-59
2023/01/05 10:53:24;;;;;;;11.27;3.30;;;14.50;99.90;;;;;;5074959;28;20204;-58
2023/01/05 10:55:59;;;;;;;10.10;3.33;;;14.50;99.90;;;;;;5077115;28;20266;-58
2023/01/05 10:58:27;;;;;;;10.03;2.73;;;14.60;99.90;;;;;;5077459;28;20204;-60
2023/01/05 11:00:57;;;;;;;11.57;2.47;;;14.50;99.90;;;;;;5078764;28;20204;-58
2023/01/05 11:03:33;;;;;;;10.60;2.67;;;14.50;99.90;;;;;;5078837;28;20211;-57
2023/01/05 11:06:01;;;;;;;9.63;2.70;;;14.50;99.90;;;;;;5079024;28;20224;-58
2023/01/05 11:08:30;;;;;;;10.33;2.70;;;14.50;99.90;;;;;;5077723;28;20205;-57
2023/01/05 11:10:59;;;;;;;9.82;2.70;;;14.50;99.90;;;;;;5076707;28;20232;-57
2023/01/05 11:13:37;;;;;;;8.70;2.30;;;14.60;99.90;;;;;;5077758;28;20213;-57
2023/01/05 11:16:10;;;;;;;8.77;2.67;;;14.60;99.90;;;;;;5077831;28;20205;-59
2023/01/05 11:18:46;;;;;;;12.68;2.85;;;14.60;99.90;;;;;;5073020;28;20917;-60
2023/01/05 11:21:17;;;;;;;10.07;2.70;;;14.70;99.90;;;;;;5057173;28;20292;-59
2023/01/05 11:23:45;;;;;;;11.33;2.63;;;14.70;99.90;;;;;;5057292;28;20226;-60
2023/01/05 11:26:29;;;;;;;10.10;3.10;;;14.70;99.90;;;;;;5056312;28;20220;-59
2023/01/05 11:29:14;;;;;;;10.60;2.97;;;14.70;99.90;;;;;;5057504;28;20212;-60
2023/01/05 11:31:46;;;;;;;8.75;2.85;;;14.70;99.90;;;;;;5056829;28;20229;-59
2023/01/05 11:34:27;;;;;;;11.97;3.40;;;14.80;99.90;;;;;;5057393;28;20233;-58
2023/01/05 11:36:57;;;;;;;13.67;3.00;;;14.70;99.90;;;;;;5058158;28;20201;-59
2023/01/05 11:39:30;;;;;;;10.97;2.57;;;14.70;99.90;;;;;;5072601;28;20221;-59
2023/01/05 11:42:13;;;;;;;11.40;2.47;;;14.70;99.90;;;;;;5078260;28;20672;-58
2023/01/05 11:44:43;;;;;;;8.60;3.20;;;14.70;99.90;;;;;;5076922;28;20613;-59
2023/01/05 11:47:17;;;;;;;11.27;2.73;;;14.70;99.90;;;;;;5078711;28;20219;-56
2023/01/05 11:49:44;;;;;;;9.70;3.00;;;14.60;99.90;;;;;;5077978;28;20201;-58
2023/01/05 11:52:28;;;;;;;8.77;2.70;;;14.60;99.90;;;;;;5077057;28;20232;-57
2023/01/05 11:54:55;;;;;;;9.63;2.90;;;14.50;99.90;;;;;;5076519;28;20251;-56
2023/01/05 11:57:23;;;;;;;8.17;2.57;;;14.60;99.90;;;;;;5075294;28;20215;-57
2023/01/05 11:59:54;;;;;;;10.43;3.03;;;14.50;99.90;;;;;;5076750;28;20703;-56
2023/01/05 12:02:44;;;;;;;11.70;2.67;;;14.50;99.90;;;;;;5076891;28;20200;-55
2023/01/05 12:05:23;;;;;;;7.90;2.63;;;14.50;99.90;;;;;;5076611;28;20252;-58
2023/01/05 12:07:56;;;;;;;8.20;2.40;;;14.50;99.90;;;;;;5076838;28;20657;-58
2023/01/05 12:10:39;;;;;;;8.33;2.20;;;14.40;99.90;;;;;;5075703;28;20604;-57
2023/01/05 12:13:15;;;;;;;9.10;2.23;;;14.40;99.90;;;;;;5076370;28;20587;-57
2023/01/05 12:16:10;;;;;;;13.40;2.63;;;14.40;99.90;;;;;;5076584;28;20209;-57
2023/01/05 12:19:08;;;;;;;14.17;2.80;;;14.40;99.90;;;;;;5074706;28;20249;-57
2023/01/05 12:21:38;;;;;;;11.83;2.33;;;14.40;99.90;;;;;;5074911;28;20296;-57
2023/01/05 12:24:31;;;;;;;9.57;2.57;;;14.40;99.90;;;;;;5075105;28;20619;-57
2023/01/05 12:27:13;;;;;;;12.90;2.97;;;14.40;99.90;;;;;;5074393;28;20215;-57
2023/01/05 12:30:00;;;;;;;14.17;2.77;;;14.50;99.90;;;;;;5074355;28;20653;-57
2023/01/05 12:32:44;;;;;;;11.30;2.80;;;14.60;99.90;;;;;;5074469;28;20606;-58
2023/01/05 12:35:43;;;;;;;10.87;2.30;;;14.60;99.90;;;;;;5074414;28;20225;-57
2023/01/05 12:38:36;;;;;;;13.77;2.73;;;14.50;99.90;;;;;;5074603;28;20205;-57
2023/01/05 12:41:27;;;;;;;11.87;2.70;;;14.30;99.90;;;;;;5074325;28;20738;-57
2023/01/05 12:44:09;;;;;;;7.53;2.60;;;14.10;99.90;;;;;;5074076;28;20220;-57
2023/01/05 12:46:48;;;;;;;10.20;2.60;;;14.00;99.90;;;;;;5073920;28;20604;-57
2023/01/05 12:49:19;;;;;;;14.83;2.83;;;13.90;99.90;;;;;;5074858;28;20274;-57
2023/01/05 12:51:50;;;;;;;8.30;3.07;;;13.90;99.90;;;;;;5075102;28;20302;-57
2023/01/05 12:54:29;;;;;;;7.67;2.47;;;13.80;99.90;;;;;;5074748;28;20315;-56
2023/01/05 12:57:01;;;;;;;7.67;2.37;;;13.80;99.90;;;;;;5074774;28;20208;-57
2023/01/05 12:59:33;;;;;;;12.23;3.00;;;13.70;99.90;;;;;;5074426;28;20300;-57
2023/01/05 13:02:07;;;;;;;10.00;2.43;;;13.70;99.90;;;;;;5073823;28;20219;-57
2023/01/05 13:04:43;;;;;;;11.50;2.90;;;13.70;99.90;;;;;;5073824;28;20217;-58
2023/01/05 13:07:16;;;;;;;12.73;2.83;;;13.60;99.90;;;;;;5073495;28;20583;-58
2023/01/05 13:09:45;;;;;;;10.40;2.67;;;13.60;99.90;;;;;;5072871;28;20208;-58
2023/01/05 13:12:13;;;;;;;11.83;2.93;;;13.60;99.90;;;;;;5073262;28;20250;-57
2023/01/05 13:14:51;;;;;;;13.83;3.70;;;13.60;99.90;;;;;;5073493;28;20224;-59
2023/01/05 13:17:25;;;;;;;10.53;2.93;;;13.50;99.90;;;;;;5073819;28;20283;-57
2023/01/05 13:20:05;;;;;;;13.83;3.00;;;13.50;99.90;;;;;;5073483;28;20212;-57
2023/01/05 13:22:35;;;;;;;11.60;3.77;;;13.50;99.90;;;;;;5073377;28;20208;-56
2023/01/05 13:25:14;;;;;;;11.00;2.80;;;13.50;99.90;;;;;;5073319;28;20221;-57
2023/01/05 13:27:43;;;;;;;12.07;3.03;;;13.60;99.90;;;;;;5073339;28;20200;-57
2023/01/05 13:30:20;;;;;;;10.83;2.50;;;13.60;99.90;;;;;;5072871;28;20209;-57
2023/01/05 13:33:09;;;;;;;13.00;2.90;;;13.60;99.90;;;;;;5073070;28;20700;-58
2023/01/05 13:35:57;;;;;;;9.57;2.80;;;13.60;99.90;;;;;;5073012;28;20235;-57